sensor_id;sensor_type;location;lat;lon;timestamp;temperature;humidity
8095;DHT22;4090;49.270;8.696;2023-04-01T00:01:32;11.20;99.90
8095;DHT22;4090;49.270;8.696;2023-04-01T00:04:15;11.20;99.90
8095;DHT22;4090;49.270;8.696;2023-04-01T00:06:57;11.20;99.90
8095;DHT22;4090;49.270;8.696;2023-04-01T00:09:40;11.20;99.90
8095;DHT22;4090;49.270;8.696;2023-04-01T00:12:21;11.20;99.90
8095;DHT22;4090;49.270;8.696;2023-04-01T00:15:06;11.20;99.90
8095;DHT22;4090;49.270;8.696;2023-04-01T00:17:48;11.20;99.90
8095;DHT22;4090;49.270;8.696;2023-04-01T00:20:31;11.20;99.90
8095;DHT22;4090;49.270;8.696;2023-04-01T00:23:13;11.20;99.90
8095;DHT22;4090;49.270;8.696;2023-04-01T00:25:55;11.20;99.90
8095;DHT22;4090;49.270;8.696;2023-04-01T00:28:37;11.20;99.90
8095;DHT22;4090;49.270;8.696;2023-04-01T00:31:19;11.20;99.90
8095;DHT22;4090;49.270;8.696;2023-04-01T00:34:01;11.20;99.90
8095;DHT22;4090;49.270;8.696;2023-04-01T00:36:44;11.20;99.90
8095;DHT22;4090;49.270;8.696;2023-04-01T00:39:28;11.10;99.90
8095;DHT22;4090;49.270;8.696;2023-04-01T00:42:09;11.10;99.90
8095;DHT22;4090;49.270;8.696;2023-04-01T00:44:53;11.10;99.90
8095;DHT22;4090;49.270;8.696;2023-04-01T00:47:35;11.10;99.90
8095;DHT22;4090;49.270;8.696;2023-04-01T00:50:17;11.10;99.90
8095;DHT22;4090;49.270;8.696;2023-04-01T00:53:01;11.10;99.90
8095;DHT22;4090;49.270;8.696;2023-04-01T00:55:46;11.20;99.90
8095;DHT22;4090;49.270;8.696;2023-04-01T00:58:31;11.10;99.90
8095;DHT22;4090;49.270;8.696;2023-04-01T01:01:14;11.10;99.90
8095;DHT22;4090;49.270;8.696;2023-04-01T01:03:56;11.10;99.90
8095;DHT22;4090;49.270;8.696;2023-04-01T01:06:39;11.10;99.90
8095;DHT22;4090;49.270;8.696;2023-04-01T01:09:28;11.10;99.90
8095;DHT22;4090;49.270;8.696;2023-04-01T01:12:13;11.10;99.90
8095;DHT22;4090;49.270;8.696;2023-04-01T01:14:57;11.20;99.90
8095;DHT22;4090;49.270;8.696;2023-04-01T01:17:44;11.10;99.90
8095;DHT22;4090;49.270;8.696;2023-04-01T01:23:51;11.20;99.90
8095;DHT22;4090;49.270;8.696;2023-04-01T01:26:42;11.10;99.90
8095;DHT22;4090;49.270;8.696;2023-04-01T01:35:30;11.20;99.90
8095;DHT22;4090;49.270;8.696;2023-04-01T01:38:14;11.10;99.90
8095;DHT22;4090;49.270;8.696;2023-04-01T01:41:00;11.10;99.90
8095;DHT22;4090;49.270;8.696;2023-04-01T01:43:44;11.10;99.90
8095;DHT22;4090;49.270;8.696;2023-04-01T01:46:29;11.10;99.90
8095;DHT22;4090;49.270;8.696;2023-04-01T01:49:12;11.10;99.90
8095;DHT22;4090;49.270;8.696;2023-04-01T01:51:56;11.10;99.90
8095;DHT22;4090;49.270;8.696;2023-04-01T01:54:46;11.10;99.90
8095;DHT22;4090;49.270;8.696;2023-04-01T01:57:28;11.10;99.90
8095;DHT22;4090;49.270;8.696;2023-04-01T02:00:14;11.20;99.90
8095;DHT22;4090;49.270;8.696;2023-04-01T02:03:02;11.10;99.90
8095;DHT22;4090;49.270;8.696;2023-04-01T02:05:45;11.10;99.90
8095;DHT22;4090;49.270;8.696;2023-04-01T02:08:30;11.10;99.90
8095;DHT22;4090;49.270;8.696;2023-04-01T02:11:13;11.10;99.90
8095;DHT22;4090;49.270;8.696;2023-04-01T02:13:58;11.10;99.90
8095;DHT22;4090;49.270;8.696;2023-04-01T02:16:43;11.20;99.90
8095;DHT22;4090;49.270;8.696;2023-04-01T02:19:27;11.20;99.90
8095;DHT22;4090;49.270;8.696;2023-04-01T02:22:12;11.20;99.90
8095;DHT22;4090;49.270;8.696;2023-04-01T02:24:58;11.20;99.90
8095;DHT22;4090;49.270;8.696;2023-04-01T02:27:51;11.20;99.90
8095;DHT22;4090;49.270;8.696;2023-04-01T02:30:41;11.20;99.90
8095;DHT22;4090;49.270;8.696;2023-04-01T02:33:24;11.20;99.90
8095;DHT22;4090;49.270;8.696;2023-04-01T02:36:10;11.20;99.90
8095;DHT22;4090;49.270;8.696;2023-04-01T02:38:52;11.20;99.90
8095;DHT22;4090;49.270;8.696;2023-04-01T02:41:40;11.20;99.90
8095;DHT22;4090;49.270;8.696;2023-04-01T02:44:22;11.20;99.90
8095;DHT22;4090;49.270;8.696;2023-04-01T02:47:04;11.20;99.90
8095;DHT22;4090;49.270;8.696;2023-04-01T02:49:45;11.20;99.90
8095;DHT22;4090;49.270;8.696;2023-04-01T02:52:28;11.20;99.90
8095;DHT22;4090;49.270;8.696;2023-04-01T02:55:12;11.20;99.90
8095;DHT22;4090;49.270;8.696;2023-04-01T02:57:55;11.10;99.90
8095;DHT22;4090;49.270;8.696;2023-04-01T03:00:37;11.10;99.90
8095;DHT22;4090;49.270;8.696;2023-04-01T03:03:19;11.10;99.90
8095;DHT22;4090;49.270;8.696;2023-04-01T03:06:04;11.00;99.90
8095;DHT22;4090;49.270;8.696;2023-04-01T03:08:46;11.00;99.90
8095;DHT22;4090;49.270;8.696;2023-04-01T03:11:28;11.10;99.90
8095;DHT22;4090;49.270;8.696;2023-04-01T03:14:11;11.00;99.90
8095;DHT22;4090;49.270;8.696;2023-04-01T03:16:52;11.10;99.90
8095;DHT22;4090;49.270;8.696;2023-04-01T03:19:34;11.00;99.90
8095;DHT22;4090;49.270;8.696;2023-04-01T03:22:20;11.00;99.90
8095;DHT22;4090;49.270;8.696;2023-04-01T03:25:02;11.00;99.90
8095;DHT22;4090;49.270;8.696;2023-04-01T03:27:44;11.00;99.90
8095;DHT22;4090;49.270;8.696;2023-04-01T03:30:27;11.00;99.90
8095;DHT22;4090;49.270;8.696;2023-04-01T03:33:10;10.90;99.90
8095;DHT22;4090;49.270;8.696;2023-04-01T03:35:52;10.90;99.90
8095;DHT22;4090;49.270;8.696;2023-04-01T03:38:34;10.90;99.90
8095;DHT22;4090;49.270;8.696;2023-04-01T03:41:16;10.90;99.90
8095;DHT22;4090;49.270;8.696;2023-04-01T03:43:58;10.90;99.90
8095;DHT22;4090;49.270;8.696;2023-04-01T03:46:41;10.90;99.90
8095;DHT22;4090;49.270;8.696;2023-04-01T03:49:23;10.90;99.90
8095;DHT22;4090;49.270;8.696;2023-04-01T03:52:07;10.90;99.90
8095;DHT22;4090;49.270;8.696;2023-04-01T03:54:49;10.90;99.90
8095;DHT22;4090;49.270;8.696;2023-04-01T03:57:31;10.90;99.90
8095;DHT22;4090;49.270;8.696;2023-04-01T04:00:19;10.80;99.90
8095;DHT22;4090;49.270;8.696;2023-04-01T04:03:07;10.80;99.90
8095;DHT22;4090;49.270;8.696;2023-04-01T04:05:49;10.90;99.90
8095;DHT22;4090;49.270;8.696;2023-04-01T04:08:32;10.80;99.90
8095;DHT22;4090;49.270;8.696;2023-04-01T04:11:14;10.80;99.90
8095;DHT22;4090;49.270;8.696;2023-04-01T04:13:57;10.80;99.90
8095;DHT22;4090;49.270;8.696;2023-04-01T04:16:38;10.80;99.90
8095;DHT22;4090;49.270;8.696;2023-04-01T04:19:22;10.80;99.90
8095;DHT22;4090;49.270;8.696;2023-04-01T04:22:04;10.80;99.90
8095;DHT22;4090;49.270;8.696;2023-04-01T04:24:45;10.80;99.90
8095;DHT22;4090;49.270;8.696;2023-04-01T04:27:27;10.80;99.90
8095;DHT22;4090;49.270;8.696;2023-04-01T04:30:20;10.70;99.90
8095;DHT22;4090;49.270;8.696;2023-04-01T04:33:02;10.70;99.90
8095;DHT22;4090;49.270;8.696;2023-04-01T04:35:45;10.70;99.90
8095;DHT22;4090;49.270;8.696;2023-04-01T04:38:27;10.70;99.90
8095;DHT22;4090;49.270;8.696;2023-04-01T04:41:09;10.70;99.90
8095;DHT22;4090;49.270;8.696;2023-04-01T04:43:52;10.70;99.90
8095;DHT22;4090;49.270;8.696;2023-04-01T04:46:35;10.60;99.90
8095;DHT22;4090;49.270;8.696;2023-04-01T04:49:27;10.60;99.90
8095;DHT22;4090;49.270;8.696;2023-04-01T04:52:10;10.60;99.90
8095;DHT22;4090;49.270;8.696;2023-04-01T04:54:51;10.60;99.90
8095;DHT22;4090;49.270;8.696;2023-04-01T04:57:33;10.60;99.90
8095;DHT22;4090;49.270;8.696;2023-04-01T05:00:15;10.60;99.90
8095;DHT22;4090;49.270;8.696;2023-04-01T05:03:03;10.60;99.90
8095;DHT22;4090;49.270;8.696;2023-04-01T05:05:48;10.60;99.90
8095;DHT22;4090;49.270;8.696;2023-04-01T05:08:31;10.60;99.90
8095;DHT22;4090;49.270;8.696;2023-04-01T05:11:15;10.60;99.90
8095;DHT22;4090;49.270;8.696;2023-04-01T05:13:57;10.70;99.90
8095;DHT22;4090;49.270;8.696;2023-04-01T05:16:40;10.70;99.90
8095;DHT22;4090;49.270;8.696;2023-04-01T05:19:21;10.70;99.90
8095;DHT22;4090;49.270;8.696;2023-04-01T05:22:03;10.70;99.90
8095;DHT22;4090;49.270;8.696;2023-04-01T05:24:47;10.70;99.90
8095;DHT22;4090;49.270;8.696;2023-04-01T05:27:29;10.80;99.90
8095;DHT22;4090;49.270;8.696;2023-04-01T05:30:11;10.80;99.90
8095;DHT22;4090;49.270;8.696;2023-04-01T05:33:08;10.80;99.90
8095;DHT22;4090;49.270;8.696;2023-04-01T05:35:50;10.80;99.90
8095;DHT22;4090;49.270;8.696;2023-04-01T05:38:32;10.90;99.90
8095;DHT22;4090;49.270;8.696;2023-04-01T05:41:15;10.80;99.90
8095;DHT22;4090;49.270;8.696;2023-04-01T05:43:59;10.80;99.90
8095;DHT22;4090;49.270;8.696;2023-04-01T05:46:53;10.80;99.90
8095;DHT22;4090;49.270;8.696;2023-04-01T05:49:37;10.90;99.90
8095;DHT22;4090;49.270;8.696;2023-04-01T05:52:19;10.90;99.90
8095;DHT22;4090;49.270;8.696;2023-04-01T05:55:01;10.90;99.90
8095;DHT22;4090;49.270;8.696;2023-04-01T05:57:45;11.00;99.90
8095;DHT22;4090;49.270;8.696;2023-04-01T06:00:28;11.00;99.90
8095;DHT22;4090;49.270;8.696;2023-04-01T06:03:12;11.00;99.90
8095;DHT22;4090;49.270;8.696;2023-04-01T06:05:54;11.00;99.90
8095;DHT22;4090;49.270;8.696;2023-04-01T06:08:36;11.00;99.90
8095;DHT22;4090;49.270;8.696;2023-04-01T06:11:19;11.00;99.90
8095;DHT22;4090;49.270;8.696;2023-04-01T06:14:09;10.90;99.90
8095;DHT22;4090;49.270;8.696;2023-04-01T06:17:00;11.00;99.90
8095;DHT22;4090;49.270;8.696;2023-04-01T06:19:44;10.90;99.90
8095;DHT22;4090;49.270;8.696;2023-04-01T06:22:37;11.00;99.90
8095;DHT22;4090;49.270;8.696;2023-04-01T06:25:27;10.90;99.90
8095;DHT22;4090;49.270;8.696;2023-04-01T06:28:27;10.90;99.90
8095;DHT22;4090;49.270;8.696;2023-04-01T06:31:15;10.90;99.90
8095;DHT22;4090;49.270;8.696;2023-04-01T06:34:02;10.90;99.90
8095;DHT22;4090;49.270;8.696;2023-04-01T06:36:55;10.90;99.90
8095;DHT22;4090;49.270;8.696;2023-04-01T06:39:51;10.80;99.90
8095;DHT22;4090;49.270;8.696;2023-04-01T06:42:41;10.80;99.90
8095;DHT22;4090;49.270;8.696;2023-04-01T06:45:46;10.80;99.90
8095;DHT22;4090;49.270;8.696;2023-04-01T06:48:53;10.80;99.90
8095;DHT22;4090;49.270;8.696;2023-04-01T06:51:58;10.80;99.90
8095;DHT22;4090;49.270;8.696;2023-04-01T06:55:00;10.90;99.90
8095;DHT22;4090;49.270;8.696;2023-04-01T06:58:02;10.80;99.90
8095;DHT22;4090;49.270;8.696;2023-04-01T07:00:45;10.80;99.90
8095;DHT22;4090;49.270;8.696;2023-04-01T07:03:29;10.70;99.90
8095;DHT22;4090;49.270;8.696;2023-04-01T07:06:16;10.70;99.90
8095;DHT22;4090;49.270;8.696;2023-04-01T07:09:08;10.60;99.90
8095;DHT22;4090;49.270;8.696;2023-04-01T07:12:12;10.60;99.90
8095;DHT22;4090;49.270;8.696;2023-04-01T07:15:33;10.60;99.90
8095;DHT22;4090;49.270;8.696;2023-04-01T07:18:21;10.60;99.90
8095;DHT22;4090;49.270;8.696;2023-04-01T07:21:04;10.60;99.90
8095;DHT22;4090;49.270;8.696;2023-04-01T07:23:48;10.60;99.90
8095;DHT22;4090;49.270;8.696;2023-04-01T07:26:41;10.60;99.90
8095;DHT22;4090;49.270;8.696;2023-04-01T07:29:29;10.60;99.90
8095;DHT22;4090;49.270;8.696;2023-04-01T07:32:15;10.60;99.90
8095;DHT22;4090;49.270;8.696;2023-04-01T07:35:02;10.50;99.90
8095;DHT22;4090;49.270;8.696;2023-04-01T07:37:48;10.50;99.90
8095;DHT22;4090;49.270;8.696;2023-04-01T07:40:37;10.50;99.90
8095;DHT22;4090;49.270;8.696;2023-04-01T07:43:24;10.50;99.90
8095;DHT22;4090;49.270;8.696;2023-04-01T07:46:34;10.50;99.90
8095;DHT22;4090;49.270;8.696;2023-04-01T07:49:22;10.60;99.90
8095;DHT22;4090;49.270;8.696;2023-04-01T07:52:08;10.50;99.90
8095;DHT22;4090;49.270;8.696;2023-04-01T07:54:57;10.60;99.90
8095;DHT22;4090;49.270;8.696;2023-04-01T07:57:43;10.60;99.90
8095;DHT22;4090;49.270;8.696;2023-04-01T08:00:29;10.50;99.90
8095;DHT22;4090;49.270;8.696;2023-04-01T08:03:29;10.60;99.90
8095;DHT22;4090;49.270;8.696;2023-04-01T08:06:14;10.60;99.90
8095;DHT22;4090;49.270;8.696;2023-04-01T08:09:02;10.60;99.90
8095;DHT22;4090;49.270;8.696;2023-04-01T08:12:07;10.60;99.90
8095;DHT22;4090;49.270;8.696;2023-04-01T08:15:14;10.60;99.90
8095;DHT22;4090;49.270;8.696;2023-04-01T08:18:07;10.60;99.90
8095;DHT22;4090;49.270;8.696;2023-04-01T08:20:51;10.60;99.90
8095;DHT22;4090;49.270;8.696;2023-04-01T08:23:37;10.70;99.90
8095;DHT22;4090;49.270;8.696;2023-04-01T08:26:23;10.60;99.90
8095;DHT22;4090;49.270;8.696;2023-04-01T08:29:09;10.60;99.90
8095;DHT22;4090;49.270;8.696;2023-04-01T08:31:55;10.60;99.90
8095;DHT22;4090;49.270;8.696;2023-04-01T08:34:39;10.60;99.90
8095;DHT22;4090;49.270;8.696;2023-04-01T08:37:28;10.60;99.90
8095;DHT22;4090;49.270;8.696;2023-04-01T08:40:22;10.60;99.90
8095;DHT22;4090;49.270;8.696;2023-04-01T08:43:09;10.60;99.90
8095;DHT22;4090;49.270;8.696;2023-04-01T08:45:58;10.70;99.90
8095;DHT22;4090;49.270;8.696;2023-04-01T08:48:50;10.70;99.90
8095;DHT22;4090;49.270;8.696;2023-04-01T08:51:43;10.70;99.90
8095;DHT22;4090;49.270;8.696;2023-04-01T08:54:37;10.70;99.90
8095;DHT22;4090;49.270;8.696;2023-04-01T08:57:31;10.70;99.90
8095;DHT22;4090;49.270;8.696;2023-04-01T09:00:37;10.70;99.90
8095;DHT22;4090;49.270;8.696;2023-04-01T09:03:36;10.70;99.90
8095;DHT22;4090;49.270;8.696;2023-04-01T09:09:27;10.70;99.90
8095;DHT22;4090;49.270;8.696;2023-04-01T09:12:21;10.70;99.90
8095;DHT22;4090;49.270;8.696;2023-04-01T09:24:44;10.80;99.90
8095;DHT22;4090;49.270;8.696;2023-04-01T09:27:28;10.80;99.90
8095;DHT22;4090;49.270;8.696;2023-04-01T09:33:17;10.90;99.90
8095;DHT22;4090;49.270;8.696;2023-04-01T09:36:04;10.90;99.90
8095;DHT22;4090;49.270;8.696;2023-04-01T09:38:53;10.90;99.90
8095;DHT22;4090;49.270;8.696;2023-04-01T09:41:39;10.90;99.90
8095;DHT22;4090;49.270;8.696;2023-04-01T09:44:34;10.90;99.90
8095;DHT22;4090;49.270;8.696;2023-04-01T09:47:35;10.90;99.90
8095;DHT22;4090;49.270;8.696;2023-04-01T09:50:27;11.00;99.90
8095;DHT22;4090;49.270;8.696;2023-04-01T09:53:14;11.00;99.90
8095;DHT22;4090;49.270;8.696;2023-04-01T09:56:14;11.00;99.90
8095;DHT22;4090;49.270;8.696;2023-04-01T09:59:09;11.00;99.90
8095;DHT22;4090;49.270;8.696;2023-04-01T10:02:21;11.10;99.90
8095;DHT22;4090;49.270;8.696;2023-04-01T10:05:15;11.10;99.90
8095;DHT22;4090;49.270;8.696;2023-04-01T10:11:22;11.10;99.90
8095;DHT22;4090;49.270;8.696;2023-04-01T10:14:20;11.10;99.90
8095;DHT22;4090;49.270;8.696;2023-04-01T10:17:11;11.20;99.90
8095;DHT22;4090;49.270;8.696;2023-04-01T10:20:12;11.20;99.90
8095;DHT22;4090;49.270;8.696;2023-04-01T10:23:09;11.20;99.90
8095;DHT22;4090;49.270;8.696;2023-04-01T10:26:04;11.30;99.90
8095;DHT22;4090;49.270;8.696;2023-04-01T10:29:02;11.30;99.90
8095;DHT22;4090;49.270;8.696;2023-04-01T10:38:08;11.30;99.90
8095;DHT22;4090;49.270;8.696;2023-04-01T10:40:57;11.30;99.90
8095;DHT22;4090;49.270;8.696;2023-04-01T10:50:14;11.40;99.90
8095;DHT22;4090;49.270;8.696;2023-04-01T10:56:38;11.30;99.90
8095;DHT22;4090;49.270;8.696;2023-04-01T10:59:50;11.40;99.90
8095;DHT22;4090;49.270;8.696;2023-04-01T11:15:42;11.50;99.90
8095;DHT22;4090;49.270;8.696;2023-04-01T11:25:08;11.50;99.90
8095;DHT22;4090;49.270;8.696;2023-04-01T11:28:16;11.40;99.90
8095;DHT22;4090;49.270;8.696;2023-04-01T11:31:08;11.40;99.90
8095;DHT22;4090;49.270;8.696;2023-04-01T11:33:54;11.40;99.90
8095;DHT22;4090;49.270;8.696;2023-04-01T11:36:39;11.40;99.90
8095;DHT22;4090;49.270;8.696;2023-04-01T11:39:29;11.50;99.90
8095;DHT22;4090;49.270;8.696;2023-04-01T11:42:17;11.40;99.90
8095;DHT22;4090;49.270;8.696;2023-04-01T11:45:33;11.40;99.90
8095;DHT22;4090;49.270;8.696;2023-04-01T11:51:26;11.40;99.90
8095;DHT22;4090;49.270;8.696;2023-04-01T11:54:16;11.50;99.90
8095;DHT22;4090;49.270;8.696;2023-04-01T11:57:07;11.50;99.90
8095;DHT22;4090;49.270;8.696;2023-04-01T11:59:57;11.50;99.90
8095;DHT22;4090;49.270;8.696;2023-04-01T12:02:47;11.50;99.90
8095;DHT22;4090;49.270;8.696;2023-04-01T12:05:37;11.60;99.90
8095;DHT22;4090;49.270;8.696;2023-04-01T12:08:29;11.60;99.90
8095;DHT22;4090;49.270;8.696;2023-04-01T12:11:15;11.60;99.90
8095;DHT22;4090;49.270;8.696;2023-04-01T12:13:59;11.50;99.90
8095;DHT22;4090;49.270;8.696;2023-04-01T12:16:46;11.50;99.90
8095;DHT22;4090;49.270;8.696;2023-04-01T12:19:35;11.50;99.90
8095;DHT22;4090;49.270;8.696;2023-04-01T12:22:23;11.50;99.90
8095;DHT22;4090;49.270;8.696;2023-04-01T12:25:16;11.60;99.90
8095;DHT22;4090;49.270;8.696;2023-04-01T12:28:03;11.50;99.90
8095;DHT22;4090;49.270;8.696;2023-04-01T12:30:53;11.50;99.90
8095;DHT22;4090;49.270;8.696;2023-04-01T12:36:40;11.50;99.90
8095;DHT22;4090;49.270;8.696;2023-04-01T12:39:37;11.50;99.90
8095;DHT22;4090;49.270;8.696;2023-04-01T12:42:31;11.50;99.90
8095;DHT22;4090;49.270;8.696;2023-04-01T12:45:23;11.60;99.90
8095;DHT22;4090;49.270;8.696;2023-04-01T12:48:27;11.60;99.90
8095;DHT22;4090;49.270;8.696;2023-04-01T12:51:20;11.60;99.90
8095;DHT22;4090;49.270;8.696;2023-04-01T12:54:24;11.60;99.90
8095;DHT22;4090;49.270;8.696;2023-04-01T12:57:17;11.60;99.90
8095;DHT22;4090;49.270;8.696;2023-04-01T13:00:08;11.60;99.90
8095;DHT22;4090;49.270;8.696;2023-04-01T13:02:58;11.60;99.90
8095;DHT22;4090;49.270;8.696;2023-04-01T13:05:49;11.70;99.90
8095;DHT22;4090;49.270;8.696;2023-04-01T13:08:42;11.70;99.90
8095;DHT22;4090;49.270;8.696;2023-04-01T13:11:31;11.70;99.90
8095;DHT22;4090;49.270;8.696;2023-04-01T13:14:21;11.70;99.90
8095;DHT22;4090;49.270;8.696;2023-04-01T13:17:09;11.70;99.90
8095;DHT22;4090;49.270;8.696;2023-04-01T13:19:53;11.70;99.90
8095;DHT22;4090;49.270;8.696;2023-04-01T13:22:45;11.80;99.90
8095;DHT22;4090;49.270;8.696;2023-04-01T13:25:32;11.70;99.90
8095;DHT22;4090;49.270;8.696;2023-04-01T13:28:18;11.70;99.90
8095;DHT22;4090;49.270;8.696;2023-04-01T13:31:02;11.80;99.90
8095;DHT22;4090;49.270;8.696;2023-04-01T13:33:50;11.80;99.90
8095;DHT22;4090;49.270;8.696;2023-04-01T13:36:36;11.80;99.90
8095;DHT22;4090;49.270;8.696;2023-04-01T13:39:25;11.80;99.90
8095;DHT22;4090;49.270;8.696;2023-04-01T13:42:13;11.80;99.90
8095;DHT22;4090;49.270;8.696;2023-04-01T13:44:56;11.80;99.90
8095;DHT22;4090;49.270;8.696;2023-04-01T13:47:54;11.90;99.90
8095;DHT22;4090;49.270;8.696;2023-04-01T13:50:48;11.90;99.90
8095;DHT22;4090;49.270;8.696;2023-04-01T13:56:34;11.90;99.90
8095;DHT22;4090;49.270;8.696;2023-04-01T13:59:29;11.90;99.90
8095;DHT22;4090;49.270;8.696;2023-04-01T14:02:31;11.90;99.90
8095;DHT22;4090;49.270;8.696;2023-04-01T14:05:25;11.90;99.90
8095;DHT22;4090;49.270;8.696;2023-04-01T14:08:15;11.90;99.90
8095;DHT22;4090;49.270;8.696;2023-04-01T14:11:02;11.90;99.90
8095;DHT22;4090;49.270;8.696;2023-04-01T14:13:50;12.00;99.90
8095;DHT22;4090;49.270;8.696;2023-04-01T14:16:44;12.00;99.90
8095;DHT22;4090;49.270;8.696;2023-04-01T14:19:32;12.00;99.90
8095;DHT22;4090;49.270;8.696;2023-04-01T14:22:21;12.00;99.90
8095;DHT22;4090;49.270;8.696;2023-04-01T14:28:04;11.90;99.90
8095;DHT22;4090;49.270;8.696;2023-04-01T14:30:57;11.90;99.90
8095;DHT22;4090;49.270;8.696;2023-04-01T14:33:42;11.90;99.90
8095;DHT22;4090;49.270;8.696;2023-04-01T14:39:52;12.00;99.90
8095;DHT22;4090;49.270;8.696;2023-04-01T14:42:44;12.00;99.90
8095;DHT22;4090;49.270;8.696;2023-04-01T14:45:39;12.10;99.90
8095;DHT22;4090;49.270;8.696;2023-04-01T14:48:23;12.10;99.90
8095;DHT22;4090;49.270;8.696;2023-04-01T14:51:10;12.10;99.90
8095;DHT22;4090;49.270;8.696;2023-04-01T14:53:58;12.10;99.90
8095;DHT22;4090;49.270;8.696;2023-04-01T14:56:41;12.10;99.90
8095;DHT22;4090;49.270;8.696;2023-04-01T14:59:27;12.10;99.90
8095;DHT22;4090;49.270;8.696;2023-04-01T15:02:14;12.00;99.90
8095;DHT22;4090;49.270;8.696;2023-04-01T15:05:02;12.00;99.90
8095;DHT22;4090;49.270;8.696;2023-04-01T15:08:01;12.00;99.90
8095;DHT22;4090;49.270;8.696;2023-04-01T15:13:48;12.00;99.90
8095;DHT22;4090;49.270;8.696;2023-04-01T15:16:31;11.90;99.90
8095;DHT22;4090;49.270;8.696;2023-04-01T15:19:20;11.90;99.90
8095;DHT22;4090;49.270;8.696;2023-04-01T15:22:08;11.90;99.90
8095;DHT22;4090;49.270;8.696;2023-04-01T15:25:00;11.90;99.90
8095;DHT22;4090;49.270;8.696;2023-04-01T15:27:47;11.90;99.90
8095;DHT22;4090;49.270;8.696;2023-04-01T15:30:34;11.90;99.90
8095;DHT22;4090;49.270;8.696;2023-04-01T15:36:32;11.90;99.90
8095;DHT22;4090;49.270;8.696;2023-04-01T15:39:15;11.90;99.90
8095;DHT22;4090;49.270;8.696;2023-04-01T15:42:07;11.90;99.90
8095;DHT22;4090;49.270;8.696;2023-04-01T15:44:55;11.90;99.90
8095;DHT22;4090;49.270;8.696;2023-04-01T15:47:41;11.90;99.90
8095;DHT22;4090;49.270;8.696;2023-04-01T15:50:36;11.90;99.90
8095;DHT22;4090;49.270;8.696;2023-04-01T15:56:23;11.90;99.90
8095;DHT22;4090;49.270;8.696;2023-04-01T15:59:11;11.90;99.90
8095;DHT22;4090;49.270;8.696;2023-04-01T16:01:59;11.90;99.90
8095;DHT22;4090;49.270;8.696;2023-04-01T16:04:54;12.00;99.90
8095;DHT22;4090;49.270;8.696;2023-04-01T16:07:43;12.00;99.90
8095;DHT22;4090;49.270;8.696;2023-04-01T16:10:35;12.00;99.90
8095;DHT22;4090;49.270;8.696;2023-04-01T16:13:30;12.00;99.90
8095;DHT22;4090;49.270;8.696;2023-04-01T16:16:17;12.00;99.90
8095;DHT22;4090;49.270;8.696;2023-04-01T16:19:07;12.00;99.90
8095;DHT22;4090;49.270;8.696;2023-04-01T16:21:53;12.00;99.90
8095;DHT22;4090;49.270;8.696;2023-04-01T16:24:38;12.00;99.90
8095;DHT22;4090;49.270;8.696;2023-04-01T16:27:24;12.00;99.90
8095;DHT22;4090;49.270;8.696;2023-04-01T16:30:23;12.00;99.90
8095;DHT22;4090;49.270;8.696;2023-04-01T16:33:10;12.00;99.90
8095;DHT22;4090;49.270;8.696;2023-04-01T16:35:55;12.00;99.90
8095;DHT22;4090;49.270;8.696;2023-04-01T16:38:40;11.90;99.90
8095;DHT22;4090;49.270;8.696;2023-04-01T16:41:25;12.00;99.90
8095;DHT22;4090;49.270;8.696;2023-04-01T16:44:12;12.00;99.90
8095;DHT22;4090;49.270;8.696;2023-04-01T16:47:05;12.00;99.90
8095;DHT22;4090;49.270;8.696;2023-04-01T16:49:49;12.00;99.90
8095;DHT22;4090;49.270;8.696;2023-04-01T16:52:40;12.00;99.90
8095;DHT22;4090;49.270;8.696;2023-04-01T16:55:33;12.00;99.90
8095;DHT22;4090;49.270;8.696;2023-04-01T16:58:18;11.90;99.90
8095;DHT22;4090;49.270;8.696;2023-04-01T17:01:04;11.90;99.90
8095;DHT22;4090;49.270;8.696;2023-04-01T17:03:49;11.90;99.90
8095;DHT22;4090;49.270;8.696;2023-04-01T17:06:34;11.90;99.90
8095;DHT22;4090;49.270;8.696;2023-04-01T17:09:31;12.00;99.90
8095;DHT22;4090;49.270;8.696;2023-04-01T17:12:17;12.00;99.90
8095;DHT22;4090;49.270;8.696;2023-04-01T17:15:04;11.90;99.90
8095;DHT22;4090;49.270;8.696;2023-04-01T17:17:54;12.00;99.90
8095;DHT22;4090;49.270;8.696;2023-04-01T17:20:42;12.00;99.90
8095;DHT22;4090;49.270;8.696;2023-04-01T17:23:26;12.10;99.90
8095;DHT22;4090;49.270;8.696;2023-04-01T17:26:13;11.90;99.90
8095;DHT22;4090;49.270;8.696;2023-04-01T17:29:01;11.90;99.90
8095;DHT22;4090;49.270;8.696;2023-04-01T17:31:46;11.90;99.90
8095;DHT22;4090;49.270;8.696;2023-04-01T17:34:40;11.90;99.90
8095;DHT22;4090;49.270;8.696;2023-04-01T17:37:28;11.90;99.90
8095;DHT22;4090;49.270;8.696;2023-04-01T17:40:16;12.00;99.90
8095;DHT22;4090;49.270;8.696;2023-04-01T17:43:04;11.90;99.90
8095;DHT22;4090;49.270;8.696;2023-04-01T17:45:53;11.90;99.90
8095;DHT22;4090;49.270;8.696;2023-04-01T17:48:38;11.90;99.90
8095;DHT22;4090;49.270;8.696;2023-04-01T17:51:24;11.90;99.90
8095;DHT22;4090;49.270;8.696;2023-04-01T17:54:15;11.90;99.90
8095;DHT22;4090;49.270;8.696;2023-04-01T17:57:06;11.80;99.90
8095;DHT22;4090;49.270;8.696;2023-04-01T17:59:52;11.80;99.90
8095;DHT22;4090;49.270;8.696;2023-04-01T18:02:38;11.80;99.90
8095;DHT22;4090;49.270;8.696;2023-04-01T18:05:26;11.70;99.90
8095;DHT22;4090;49.270;8.696;2023-04-01T18:08:13;11.70;99.90
8095;DHT22;4090;49.270;8.696;2023-04-01T18:11:00;11.70;99.90
8095;DHT22;4090;49.270;8.696;2023-04-01T18:14:03;11.60;99.90
8095;DHT22;4090;49.270;8.696;2023-04-01T18:16:52;11.50;99.90
8095;DHT22;4090;49.270;8.696;2023-04-01T18:19:38;11.50;99.90
8095;DHT22;4090;49.270;8.696;2023-04-01T18:22:23;11.50;99.90
8095;DHT22;4090;49.270;8.696;2023-04-01T18:25:12;11.40;99.90
8095;DHT22;4090;49.270;8.696;2023-04-01T18:28:04;11.40;99.90
8095;DHT22;4090;49.270;8.696;2023-04-01T18:30:50;11.30;99.90
8095;DHT22;4090;49.270;8.696;2023-04-01T18:33:34;11.30;99.90
8095;DHT22;4090;49.270;8.696;2023-04-01T18:36:20;11.30;99.90
8095;DHT22;4090;49.270;8.696;2023-04-01T18:39:04;11.20;99.90
8095;DHT22;4090;49.270;8.696;2023-04-01T18:41:51;11.20;99.90
8095;DHT22;4090;49.270;8.696;2023-04-01T18:44:41;11.20;99.90
8095;DHT22;4090;49.270;8.696;2023-04-01T18:47:27;11.10;99.90
8095;DHT22;4090;49.270;8.696;2023-04-01T18:50:15;11.10;99.90
8095;DHT22;4090;49.270;8.696;2023-04-01T18:53:08;11.00;99.90
8095;DHT22;4090;49.270;8.696;2023-04-01T18:55:51;11.00;99.90
8095;DHT22;4090;49.270;8.696;2023-04-01T18:58:34;11.00;99.90
8095;DHT22;4090;49.270;8.696;2023-04-01T19:01:19;11.00;99.90
8095;DHT22;4090;49.270;8.696;2023-04-01T19:04:07;11.00;99.90
8095;DHT22;4090;49.270;8.696;2023-04-01T19:06:52;11.00;99.90
8095;DHT22;4090;49.270;8.696;2023-04-01T19:09:43;11.00;99.90
8095;DHT22;4090;49.270;8.696;2023-04-01T19:12:30;11.00;99.90
8095;DHT22;4090;49.270;8.696;2023-04-01T19:15:21;10.90;99.90
8095;DHT22;4090;49.270;8.696;2023-04-01T19:21:10;11.00;99.90
8095;DHT22;4090;49.270;8.696;2023-04-01T19:26:56;11.00;99.90
8095;DHT22;4090;49.270;8.696;2023-04-01T19:29:45;11.00;99.90
8095;DHT22;4090;49.270;8.696;2023-04-01T19:32:33;11.00;99.90
8095;DHT22;4090;49.270;8.696;2023-04-01T19:35:19;11.00;99.90
8095;DHT22;4090;49.270;8.696;2023-04-01T19:38:03;11.00;99.90
8095;DHT22;4090;49.270;8.696;2023-04-01T19:40:53;11.00;99.90
8095;DHT22;4090;49.270;8.696;2023-04-01T19:43:39;10.90;99.90
8095;DHT22;4090;49.270;8.696;2023-04-01T19:46:23;11.00;99.90
8095;DHT22;4090;49.270;8.696;2023-04-01T19:49:20;11.00;99.90
8095;DHT22;4090;49.270;8.696;2023-04-01T19:52:06;11.00;99.90